Time;durP1;ratioP1;P1;durP2;ratioP2;P2;SDS_P1;SDS_P2;PMS_P1;PMS_P2;Temp;Humidity;BMP_temperature;BMP_pressure;BME280_temperature;BME280_humidity;BME280_pressure;Samples;Min_cycle;Max_cycle;Signal;HPM_P1;HPM_P2
2020/12/01 00:02:09;;;;;;;35.90;22.87;;;;;;;4.32;69.51;100390.78;5023189;28;20041;-76
2020/12/01 00:04:34;;;;;;;36.03;21.53;;;;;;;4.35;69.50;100396.59;5041853;28;20083;-77
2020/12/01 00:07:01;;;;;;;35.43;21.20;;;;;;;4.31;69.35;100384.72;5054526;22;20038;-77
2020/12/01 00:09:28;;;;;;;32.27;21.37;;;;;;;4.43;68.91;100402.09;5041424;28;20037;-76
2020/12/01 00:11:53;;;;;;;35.47;22.77;;;;;;;4.43;69.41;100389.00;5055247;23;20095;-76
2020/12/01 00:14:24;;;;;;;29.20;20.73;;;;;;;4.34;69.32;100379.25;5049318;22;20114;-78
2020/12/01 00:16:55;;;;;;;22.97;16.13;;;;;;;4.38;69.13;100382.47;5064217;23;20049;-76
2020/12/01 00:19:24;;;;;;;22.48;15.95;;;;;;;4.48;68.90;100393.91;5033601;23;20133;-77
2020/12/01 00:21:52;;;;;;;23.53;14.77;;;;;;;4.29;68.83;100354.41;5024506;28;20056;-77
2020/12/01 00:24:18;;;;;;;20.63;14.17;;;;;;;4.47;68.57;100387.03;5043139;23;20512;-77
2020/12/01 00:26:45;;;;;;;18.93;13.97;;;;;;;4.42;68.91;100389.97;5020643;23;20042;-77
2020/12/01 00:29:17;;;;;;;18.80;13.27;;;;;;;4.44;68.97;100389.84;5049357;23;20052;-78
2020/12/01 00:34:09;;;;;;;23.96;14.36;;;;;;;4.46;68.40;100391.41;5050817;23;20099;-78
2020/12/01 00:36:35;;;;;;;21.37;13.77;;;;;;;4.46;68.50;100386.19;5058059;23;20045;-78
2020/12/01 00:39:15;;;;;;;24.47;15.40;;;;;;;4.46;68.82;100393.19;5044215;28;20076;-78
2020/12/01 00:44:12;;;;;;;23.03;14.23;;;;;;;4.47;68.97;100392.25;5057749;22;20081;-77
2020/12/01 00:46:37;;;;;;;25.73;16.70;;;;;;;4.49;68.69;100402.59;5008221;23;20387;-77
2020/12/01 00:49:03;;;;;;;26.57;15.93;;;;;;;4.51;68.88;100385.00;5019720;23;20034;-77
2020/12/01 00:51:35;;;;;;;24.50;15.33;;;;;;;4.51;68.70;100393.69;5055227;23;20111;-78
2020/12/01 00:54:06;;;;;;;25.57;15.47;;;;;;;4.50;68.52;100380.72;5020600;23;20069;-76
2020/12/01 00:56:31;;;;;;;24.80;15.30;;;;;;;4.40;68.79;100391.03;5005442;23;20050;-77
2020/12/01 00:59:01;;;;;;;25.37;15.27;;;;;;;4.53;68.74;100396.19;4982282;28;20460;-78
2020/12/01 01:01:31;;;;;;;24.37;15.87;;;;;;;4.38;68.58;100364.16;5053745;23;20052;-76
2020/12/01 01:03:56;;;;;;;25.03;15.63;;;;;;;4.55;68.54;100389.88;5026703;23;20046;-77
2020/12/01 01:06:26;;;;;;;21.97;14.17;;;;;;;4.52;68.42;100387.50;5042118;28;20044;-78
2020/12/01 01:08:52;;;;;;;26.23;16.70;;;;;;;4.51;68.80;100388.44;5049268;23;20054;-77
2020/12/01 01:11:30;;;;;;;25.83;14.87;;;;;;;4.44;68.73;100379.38;5049060;23;20310;-78
2020/12/01 01:13:57;;;;;;;23.60;15.47;;;;;;;4.55;68.40;100407.34;5049229;23;20050;-78
2020/12/01 01:16:24;;;;;;;22.77;14.43;;;;;;;4.54;68.52;100385.59;5049848;23;20050;-78
2020/12/01 01:18:50;;;;;;;24.13;15.63;;;;;;;4.50;68.23;100401.63;5058509;23;20049;-78
2020/12/01 01:21:15;;;;;;;21.70;14.87;;;;;;;4.15;68.17;100339.78;5052401;23;20128;-78
2020/12/01 01:23:41;;;;;;;22.60;15.83;;;;;;;4.46;68.28;100378.34;5045726;28;20360;-77
2020/12/01 01:26:08;;;;;;;22.23;14.97;;;;;;;4.31;68.17;100342.06;5049926;23;20456;-77
2020/12/01 01:28:33;;;;;;;25.40;16.70;;;;;;;4.51;68.62;100372.75;5058075;22;20072;-77
2020/12/01 01:33:31;;;;;;;28.70;18.43;;;;;;;4.50;68.60;100367.66;5048966;23;20080;-78
2020/12/01 01:35:56;;;;;;;28.73;18.83;;;;;;;4.33;68.50;100329.72;5052848;23;20387;-78
2020/12/01 01:38:26;;;;;;;26.37;17.00;;;;;;;4.51;68.60;100367.53;5045841;28;20068;-77
2020/12/01 01:40:56;;;;;;;26.10;16.67;;;;;;;4.21;68.34;100312.34;5053108;23;20053;-78
2020/12/01 01:43:21;;;;;;;27.13;15.73;;;;;;;4.50;68.43;100357.19;5030555;23;20050;-78
2020/12/01 01:45:50;;;;;;;23.37;16.43;;;;;;;4.52;68.33;100369.19;5037250;23;20102;-78
2020/12/01 01:48:22;;;;;;;26.70;17.13;;;;;;;4.50;68.46;100367.66;5060199;22;20276;-78
2020/12/01 01:51:13;;;;;;;29.90;18.13;;;;;;;4.47;68.52;100372.16;5057808;22;20033;-78
2020/12/01 01:53:45;;;;;;;26.07;15.90;;;;;;;4.29;68.46;100350.03;5030181;28;20065;-78
2020/12/01 01:56:11;;;;;;;;;;;;;;;4.38;68.52;100362.38;5047563;28;20344;-78
2020/12/01 01:58:40;;;;;;;26.20;16.93;;;;;;;4.44;68.62;100366.31;5053621;23;19944;-78
2020/12/01 02:01:15;;;;;;;25.87;16.33;;;;;;;4.40;68.14;100363.09;5030220;28;20109;-79
2020/12/01 02:03:47;;;;;;;24.93;15.77;;;;;;;4.42;68.19;100362.97;5053850;23;20065;-77
2020/12/01 02:06:38;;;;;;;25.15;16.08;;;;;;;4.41;67.81;100362.16;5033401;23;20432;-79
2020/12/01 02:09:12;;;;;;;26.63;16.40;;;;;;;4.42;68.08;100358.59;5052784;23;20099;-78
2020/12/01 02:11:41;;;;;;;28.17;16.50;;;;;;;4.33;68.08;100351.44;5053690;23;20083;-78
2020/12/01 02:14:28;;;;;;;28.37;18.73;;;;;;;3.71;68.03;100242.13;5076655;22;20060;-77
2020/12/01 02:16:59;;;;;;;25.97;17.40;;;;;;;4.21;68.12;100334.09;5047814;28;20056;-77
2020/12/01 02:19:28;;;;;;;24.97;16.10;;;;;;;4.43;67.95;100360.25;5047486;28;20025;-78
2020/12/01 02:21:58;;;;;;;27.87;17.20;;;;;;;4.41;67.74;100361.31;5055560;23;20025;-78
2020/12/01 02:24:29;;;;;;;26.13;16.97;;;;;;;4.29;67.85;100343.97;5038665;23;20042;-78
2020/12/01 02:29:32;;;;;;;26.97;17.73;;;;;;;4.13;67.82;100320.78;5046519;28;20077;-77
2020/12/01 02:34:43;;;;;;;27.97;17.37;;;;;;;4.39;68.02;100355.38;5045722;28;20053;-77
2020/12/01 02:37:12;;;;;;;28.80;20.10;;;;;;;4.25;68.00;100338.13;5029158;28;20383;-77
2020/12/01 02:39:38;;;;;;;30.03;19.00;;;;;;;4.35;68.08;100353.94;5054910;23;20407;-78
2020/12/01 02:42:09;;;;;;;27.87;18.40;;;;;;;4.36;67.90;100345.16;5054964;23;20363;-77
2020/12/01 02:44:34;;;;;;;29.73;19.58;;;;;;;4.17;67.68;100321.38;5021828;23;20049;-77
2020/12/01 02:47:08;;;;;;;28.83;18.80;;;;;;;4.37;67.57;100355.50;5047776;23;20507;-77
2020/12/01 02:49:35;;;;;;;28.20;18.90;;;;;;;4.24;67.76;100344.31;5029761;23;20049;-77
2020/12/01 02:52:01;;;;;;;27.90;18.37;;;;;;;4.35;67.85;100362.63;5033489;23;20061;-77
2020/12/01 02:54:26;;;;;;;30.17;18.93;;;;;;;4.35;67.98;100362.63;5027745;28;20340;-78
2020/12/01 02:56:52;;;;;;;26.37;16.53;;;;;;;4.17;68.10;100332.66;5028963;28;20097;-77
2020/12/01 02:59:24;;;;;;;29.27;17.93;;;;;;;4.07;67.80;100319.47;5029548;28;20060;-77
2020/12/01 03:01:49;;;;;;;27.50;18.35;;;;;;;4.35;68.03;100362.63;5037821;23;20033;-77
2020/12/01 03:04:15;;;;;;;25.47;15.97;;;;;;;4.35;67.77;100349.56;5040823;23;20299;-77
2020/12/01 03:06:43;;;;;;;25.50;16.03;;;;;;;3.77;67.63;100273.03;5035622;23;20054;-78
2020/12/01 03:09:12;;;;;;;27.10;16.70;;;;;;;4.17;67.44;100324.84;5028523;23;20050;-77
2020/12/01 03:11:39;;;;;;;28.37;17.53;;;;;;;3.93;67.42;100283.13;5067622;23;20045;-78
2020/12/01 03:14:05;;;;;;;25.60;16.17;;;;;;;4.34;67.36;100352.28;5092411;23;20421;-78
2020/12/01 03:16:31;;;;;;;24.60;15.53;;;;;;;4.23;67.33;100340.03;5031723;28;20034;-78
2020/12/01 03:18:57;;;;;;;24.00;15.93;;;;;;;4.39;67.18;100366.66;5032249;28;20067;-78
2020/12/01 03:21:28;;;;;;;22.07;14.93;;;;;;;4.17;67.18;100343.13;5049844;28;20092;-77
2020/12/01 03:23:55;;;;;;;23.95;15.82;;;;;;;4.32;67.47;100355.00;5056619;23;20034;-77
2020/12/01 03:26:21;;;;;;;23.23;16.13;;;;;;;4.19;67.13;100351.69;5048493;23;20088;-78
2020/12/01 03:28:46;;;;;;;24.67;14.40;;;;;;;4.38;67.21;100367.63;5014214;23;20046;-77
2020/12/01 03:31:15;;;;;;;24.03;16.07;;;;;;;4.36;67.38;100372.13;5047024;23;20045;-78
2020/12/01 03:33:44;;;;;;;26.00;16.13;;;;;;;4.19;67.18;100336.00;5032447;28;20044;-78
2020/12/01 03:36:09;;;;;;;24.30;15.73;;;;;;;3.98;67.22;100296.66;5050078;28;20087;-78
2020/12/01 03:38:35;;;;;;;23.70;15.63;;;;;;;4.40;67.06;100370.13;5033936;23;20109;-77
2020/12/01 03:43:29;;;;;;;23.57;16.23;;;;;;;4.03;67.19;100312.81;5048169;28;20050;-77
2020/12/01 03:45:54;;;;;;;24.73;17.23;;;;;;;3.92;67.31;100291.91;5045429;23;20041;-77
2020/12/01 03:48:21;;;;;;;29.53;17.67;;;;;;;4.25;67.10;100345.97;5039781;28;20104;-78
2020/12/01 03:50:47;;;;;;;28.93;17.90;;;;;;;4.39;67.29;100374.50;5024314;23;925500;-77
2020/12/01 03:53:15;;;;;;;28.47;17.13;;;;;;;4.40;67.13;100376.16;5024241;28;20042;-78
2020/12/01 03:55:41;;;;;;;25.47;16.87;;;;;;;4.25;67.04;100351.22;5007750;28;20038;-78
2020/12/01 03:58:09;;;;;;;29.57;17.37;;;;;;;3.63;67.15;100256.69;5029104;28;20037;-78
2020/12/01 04:00:34;;;;;;;26.57;16.13;;;;;;;4.37;66.83;100378.19;5026722;28;20032;-77
2020/12/01 04:02:59;;;;;;;28.30;17.47;;;;;;;4.36;67.12;100376.53;5023128;28;20093;-77
2020/12/01 04:05:28;;;;;;;26.00;16.20;;;;;;;4.32;66.81;100373.31;5046243;23;20484;-78
2020/12/01 04:07:55;;;;;;;21.53;14.63;;;;;;;4.22;66.55;100369.75;5028148;28;20040;-78
2020/12/01 04:10:23;;;;;;;26.93;16.93;;;;;;;3.59;66.51;100253.50;5042650;23;20549;-78
2020/12/01 04:12:49;;;;;;;27.47;17.17;;;;;;;3.75;66.60;100279.31;5030941;28;20049;-78
2020/12/01 04:15:16;;;;;;;27.13;17.23;;;;;;;3.59;66.51;100261.31;5031327;28;20018;-78
2020/12/01 04:17:42;;;;;;;26.73;16.47;;;;;;;3.95;66.38;100319.59;5053948;23;20101;-78
2020/12/01 04:20:18;;;;;;;28.83;17.87;;;;;;;4.27;66.60;100367.59;5058416;23;20037;-78
2020/12/01 04:27:44;;;;;;;40.17;22.47;;;;;;;4.34;66.77;100381.03;4849419;23;20042;-78
2020/12/01 04:32:45;;;;;;;34.73;21.63;;;;;;;4.34;66.61;100378.44;4837759;26;20045;-77
2020/12/01 04:35:16;;;;;;;40.13;23.97;;;;;;;3.71;66.82;100289.13;5059291;23;20052;-78
2020/12/01 04:37:52;;;;;;;40.03;24.20;;;;;;;4.23;66.82;100381.03;5064792;23;20049;-77
2020/12/01 04:40:26;;;;;;;39.50;26.10;;;;;;;3.91;67.06;100320.78;5035297;28;20024;-77
2020/12/01 04:45:34;;;;;;;41.63;24.80;;;;;;;3.96;67.27;100324.69;1255145;26;20065;-79
2020/12/01 04:50:50;;;;;;;41.43;25.67;;;;;;;4.29;66.96;100376.16;4362580;23;20053;-79
2020/12/01 04:53:33;;;;;;;41.57;25.80;;;;;;;4.32;66.93;100373.31;5051991;28;20018;-79
2020/12/01 04:56:18;;;;;;;41.20;25.83;;;;;;;4.32;67.24;100372.47;5058679;23;20046;-79
2020/12/01 05:02:00;;;;;;;41.90;24.10;;;;;;;4.29;66.81;100370.94;5089177;23;20064;-79
2020/12/01 05:05:02;;;;;;;40.10;25.03;;;;;;;4.28;67.66;100379.72;5011136;23;20049;-79
2020/12/01 05:08:01;;;;;;;47.17;29.60;;;;;;;4.31;67.20;100373.44;5020141;23;20046;-79
2020/12/01 05:10:30;;;;;;;50.70;30.93;;;;;;;4.29;67.29;100375.34;4993333;28;20027;-79
2020/12/01 05:13:12;;;;;;;44.10;28.53;;;;;;;4.13;67.37;100339.91;4993633;28;20035;-79
2020/12/01 05:15:49;;;;;;;43.03;27.90;;;;;;;4.26;67.50;100376.41;5018634;23;20052;-79
2020/12/01 05:18:44;;;;;;;40.43;27.17;;;;;;;4.26;67.15;100373.78;5072404;28;20040;-79
2020/12/01 05:21:19;;;;;;;42.33;26.43;;;;;;;2.71;67.50;100125.28;5073773;23;20049;-79
2020/12/01 05:23:50;;;;;;;44.60;25.90;;;;;;;4.19;67.44;100379.59;5034398;23;20117;-79
2020/12/01 05:26:21;;;;;;;41.50;25.90;;;;;;;4.21;67.26;100369.84;5033188;28;20121;-79
2020/12/01 05:29:00;;;;;;;39.25;24.30;;;;;;;3.85;67.26;100331.69;5032201;28;20165;-79
2020/12/01 05:31:43;;;;;;;47.23;28.57;;;;;;;4.26;67.16;100368.56;5015308;28;20054;-79
2020/12/01 05:34:19;;;;;;;43.93;27.07;;;;;;;4.27;66.90;100374.63;5032694;28;20034;-79
2020/12/01 05:36:46;;;;;;;41.13;25.07;;;;;;;4.18;66.83;100385.78;5056023;23;20064;-79
2020/12/01 05:39:28;;;;;;;31.00;18.97;;;;;;;4.25;67.15;100390.41;5067776;23;20038;-79
2020/12/01 05:52:27;;;;;;;85.13;51.77;;;;;;;4.20;66.78;100389.94;5032680;23;20471;-79
2020/12/01 05:55:29;;;;;;;77.90;49.27;;;;;;;4.23;66.64;100401.94;5060545;23;20437;-79
2020/12/01 06:00:41;;;;;;;71.80;44.80;;;;;;;3.56;66.95;100302.50;2415727;26;20059;-79
2020/12/01 06:07:07;;;;;;;55.27;34.00;;;;;;;4.07;67.08;100402.25;5101073;23;20049;-78
2020/12/01 06:10:43;;;;;;;64.13;37.67;;;;;;;4.04;67.11;100405.13;5035659;23;20041;-79
2020/12/01 06:16:15;;;;;;;66.27;40.17;;;;;;;4.09;67.18;100408.22;4088451;23;20049;-79
2020/12/01 06:19:23;;;;;;;68.13;39.53;;;;;;;1.59;66.75;99996.31;5027542;23;20085;-79
2020/12/01 06:24:32;;;;;;;92.56;50.16;;;;;;;4.07;67.06;100412.72;5068756;23;20049;-79
2020/12/01 06:28:01;;;;;;;92.33;53.20;;;;;;;4.02;67.02;100407.84;5142110;23;20087;-79
2020/12/01 06:36:16;;;;;;;95.00;55.97;;;;;;;3.98;66.96;100414.25;4163502;26;20069;-79
2020/12/01 06:38:47;;;;;;;99.50;59.53;;;;;;;3.94;67.10;100415.41;5052928;28;20048;-79
2020/12/01 06:49:04;;;;;;;81.40;48.87;;;;;;;3.99;66.96;100418.53;5021736;26;20049;-78
2020/12/01 06:54:10;;;;;;;84.40;51.93;;;;;;;3.35;66.78;100317.97;5054202;28;20060;-77
2020/12/01 06:59:13;;;;;;;80.47;50.60;;;;;;;3.11;66.46;100269.25;5074661;28;20064;-77
2020/12/01 07:01:41;;;;;;;83.43;50.80;;;;;;;3.39;66.59;100309.81;5061029;28;20033;-77
2020/12/01 07:04:36;;;;;;;91.60;53.23;;;;;;;4.10;66.52;100421.16;5078277;28;20033;-77
2020/12/01 07:19:57;;;;;;;103.47;61.73;;;;;;;4.36;66.22;100415.75;5082852;23;20056;-78
2020/12/01 07:22:44;;;;;;;93.90;56.83;;;;;;;4.39;66.17;100408.50;5049319;23;20026;-77
2020/12/01 07:25:22;;;;;;;83.90;49.80;;;;;;;4.41;66.04;100411.00;5010094;28;20433;-76
2020/12/01 07:28:19;;;;;;;77.97;48.97;;;;;;;4.44;65.98;100413.38;5048566;23;20041;-78
2020/12/01 07:31:27;;;;;;;62.03;39.47;;;;;;;4.23;65.91;100381.88;5044142;23;20120;-78
2020/12/01 07:34:02;;;;;;;50.13;31.30;;;;;;;4.46;65.98;100403.66;5006177;28;20037;-77
2020/12/01 07:36:51;;;;;;;44.40;28.07;;;;;;;4.47;65.94;100407.94;5042339;23;20052;-77
2020/12/01 07:39:27;;;;;;;31.47;20.90;;;;;;;3.50;65.55;100251.59;5031769;23;20087;-77
2020/12/01 07:44:38;;;;;;;35.73;20.67;;;;;;;4.35;66.23;100414.91;5050805;23;20058;-77
2020/12/01 07:47:34;;;;;;;35.13;21.73;;;;;;;4.41;66.06;100414.44;4991504;28;20125;-78
2020/12/01 07:50:25;;;;;;;35.13;22.00;;;;;;;4.50;65.96;100414.72;5018068;28;20044;-78
2020/12/01 07:53:12;;;;;;;32.37;19.93;;;;;;;4.33;65.49;100382.81;5026642;28;20356;-77
2020/12/01 07:55:46;;;;;;;37.10;21.20;;;;;;;4.53;65.41;100411.88;5026768;23;20115;-77
2020/12/01 07:58:22;;;;;;;36.13;20.97;;;;;;;4.20;66.01;100379.47;5052105;22;20113;-78
2020/12/01 08:00:59;;;;;;;30.90;19.60;;;;;;;3.82;65.68;100301.41;5043626;28;20402;-78
2020/12/01 08:03:36;;;;;;;36.57;21.23;;;;;;;4.51;65.71;100408.53;5051239;23;20046;-76
2020/12/01 08:06:10;;;;;;;31.83;18.93;;;;;;;4.50;64.94;100409.47;5036114;23;20128;-76
2020/12/01 08:08:39;;;;;;;29.53;18.30;;;;;;;4.47;65.12;100408.78;5018169;28;20034;-77
2020/12/01 08:11:11;;;;;;;34.80;19.87;;;;;;;4.58;64.88;100417.56;5031307;23;20046;-76
2020/12/01 08:13:37;;;;;;;28.83;18.43;;;;;;;4.11;64.56;100344.44;5028082;28;20036;-77
2020/12/01 08:16:13;;;;;;;27.77;17.03;;;;;;;4.66;64.31;100407.34;5046808;23;20046;-77
2020/12/01 08:18:39;;;;;;;29.23;18.27;;;;;;;4.73;64.58;100414.59;5002720;28;20436;-77
2020/12/01 08:21:07;;;;;;;28.17;16.93;;;;;;;4.78;63.48;100430.78;5028517;23;20452;-76
2020/12/01 08:23:36;;;;;;;29.60;17.57;;;;;;;4.60;63.99;100413.88;5012134;23;20034;-77
2020/12/01 08:26:22;;;;;;;34.30;19.57;;;;;;;4.66;64.09;100413.41;5022300;28;20036;-78
2020/12/01 08:31:37;;;;;;;26.96;17.54;;;;;;;4.70;63.25;100401.75;5044091;23;20041;-77
2020/12/01 08:34:34;;;;;;;29.13;18.00;;;;;;;4.75;63.19;100417.09;5038062;23;20050;-78
2020/12/01 08:37:15;;;;;;;33.80;19.53;;;;;;;4.82;63.41;100404.38;5019429;28;20048;-76
2020/12/01 08:40:13;;;;;;;31.27;17.83;;;;;;;4.80;64.24;100404.50;5033701;23;20049;-75
2020/12/01 08:43:01;;;;;;;29.17;16.53;;;;;;;4.87;63.33;100403.06;5053155;28;20094;-77
2020/12/01 08:45:40;;;;;;;31.53;18.30;;;;;;;4.88;62.62;100396.03;5040068;28;20026;-78
2020/12/01 08:48:16;;;;;;;31.93;18.70;;;;;;;4.44;63.72;100334.94;5036599;28;20041;-76
2020/12/01 08:50:42;;;;;;;28.30;16.87;;;;;;;4.99;63.47;100399.47;5057354;28;20037;-78
2020/12/01 08:53:19;;;;;;;28.20;17.17;;;;;;;4.94;63.32;100401.63;5058927;23;20051;-78
2020/12/01 08:55:50;;;;;;;29.20;18.43;;;;;;;4.94;62.77;100378.06;5052183;23;20451;-77
2020/12/01 08:58:36;;;;;;;30.60;17.47;;;;;;;5.04;62.84;100394.69;5027913;23;20044;-79
2020/12/01 09:01:06;;;;;;;29.97;16.97;;;;;;;5.07;62.41;100376.13;5019855;28;20056;-78
2020/12/01 09:03:34;;;;;;;25.17;15.60;;;;;;;5.01;62.04;100374.00;5037132;28;20022;-77
2020/12/01 09:06:00;;;;;;;24.73;15.17;;;;;;;5.14;61.89;100380.88;5033066;28;20454;-78
2020/12/01 09:13:57;;;;;;;21.53;13.20;;;;;;;5.20;60.93;100362.94;5040443;28;20072;-78
2020/12/01 09:22:18;;;;;;;24.93;15.67;;;;;;;5.23;60.55;100354.00;5036739;28;20033;-76
2020/12/01 09:24:43;;;;;;;21.47;13.10;;;;;;;5.26;60.76;100349.34;5039974;28;20026;-78
2020/12/01 09:27:12;;;;;;;24.57;13.17;;;;;;;5.03;60.63;100298.81;5044683;23;20107;-78
2020/12/01 09:29:43;;;;;;;22.57;14.10;;;;;;;5.45;60.13;100345.22;5039556;28;20036;-79
2020/12/01 09:32:27;;;;;;;21.97;13.73;;;;;;;5.21;60.29;100282.59;5040732;23;20041;-80
2020/12/01 09:35:25;;;;;;;21.53;13.13;;;;;;;5.61;59.57;100343.00;5067689;23;20029;-83
2020/12/01 09:40:31;;;;;;;23.57;13.77;;;;;;;5.56;59.20;100335.53;4868041;23;20407;-79
2020/12/01 09:43:31;;;;;;;18.50;12.23;;;;;;;5.54;59.21;100336.59;5035606;28;20037;-80
2020/12/01 09:46:05;;;;;;;20.63;12.73;;;;;;;5.38;59.31;100303.00;5020593;28;20042;-79
2020/12/01 09:48:40;;;;;;;18.98;11.50;;;;;;;5.59;58.87;100339.69;5030478;28;20030;-79
2020/12/01 09:51:12;;;;;;;16.23;10.87;;;;;;;5.59;57.77;100318.72;5048277;23;20420;-79
2020/12/01 09:54:06;;;;;;;15.65;10.70;;;;;;;5.17;59.00;100266.28;4998266;28;20096;-79
2020/12/01 09:59:28;;;;;;;17.73;11.45;;;;;;;5.60;58.36;100275.84;5002996;28;20053;-79
2020/12/01 10:16:36;;;;;;;18.43;11.83;;;;;;;5.87;57.17;100239.47;4993309;28;20057;-82
2020/12/01 10:19:18;;;;;;;17.07;10.37;;;;;;;6.35;56.32;100299.19;4985805;28;20034;-78
2020/12/01 10:35:22;;;;;;;14.53;10.30;;;;;;;6.39;55.53;100269.09;5052682;28;20031;-78
2020/12/01 10:37:54;;;;;;;17.17;10.33;;;;;;;6.46;55.17;100266.78;5044982;28;20371;-77
2020/12/01 10:40:24;;;;;;;13.48;8.52;;;;;;;6.14;54.91;100210.09;5053029;28;20132;-78
2020/12/01 10:42:49;;;;;;;14.27;8.93;;;;;;;6.36;54.17;100254.47;5055921;28;20090;-80
2020/12/01 10:45:16;;;;;;;12.83;9.73;;;;;;;6.51;54.31;100261.97;5045178;28;20033;-84
2020/12/01 10:47:42;;;;;;;16.57;10.40;;;;;;;6.58;54.62;100265.72;5017749;28;20037;-76
2020/12/01 10:50:07;;;;;;;14.87;9.87;;;;;;;6.19;54.35;100189.56;5038634;28;20034;-88
2020/12/01 10:52:33;;;;;;;15.17;8.83;;;;;;;6.59;53.46;100259.50;5039596;28;20137;-78
2020/12/01 10:54:58;;;;;;;13.93;8.97;;;;;;;5.55;53.17;100129.56;5032561;28;20079;-80
2020/12/01 10:57:24;;;;;;;13.17;9.60;;;;;;;6.20;53.10;100232.34;5020868;28;20068;-84
2020/12/01 10:59:49;;;;;;;15.33;10.03;;;;;;;5.63;53.29;100147.22;5009097;28;20320;-79
2020/12/01 11:02:15;;;;;;;14.07;8.70;;;;;;;5.43;53.12;100138.47;5051510;28;20060;-90
2020/12/01 11:04:40;;;;;;;16.83;10.23;;;;;;;5.87;53.50;100160.84;5036642;28;20491;-86
2020/12/01 11:07:05;;;;;;;16.17;9.23;;;;;;;5.49;52.94;100098.66;5035087;28;20057;-82
2020/12/01 11:09:31;;;;;;;13.43;9.03;;;;;;;6.35;52.98;100247.56;5036770;28;20029;-80
2020/12/01 11:11:56;;;;;;;15.60;10.03;;;;;;;5.96;53.06;100178.44;5052460;28;20022;-94
2020/12/01 11:14:22;;;;;;;14.13;9.50;;;;;;;5.64;53.38;100110.44;5016756;28;20025;-88
2020/12/01 11:16:47;;;;;;;12.97;8.97;;;;;;;5.81;53.36;100147.44;5036859;28;20408;-87
2020/12/01 11:19:12;;;;;;;21.00;13.83;;;;;;;6.42;53.60;100218.19;5032995;28;20036;-79
2020/12/01 11:21:39;;;;;;;14.93;10.30;;;;;;;6.27;53.23;100194.97;5053131;28;20034;-85
2020/12/01 11:24:04;;;;;;;30.67;22.37;;;;;;;6.44;52.96;100217.06;5032962;28;20053;-83
2020/12/01 11:26:31;;;;;;;21.00;12.57;;;;;;;6.40;52.89;100214.84;5036372;28;20504;-87
2020/12/01 11:28:56;;;;;;;16.30;10.77;;;;;;;6.21;52.81;100189.41;5051954;28;20355;-84
2020/12/01 11:31:22;;;;;;;17.23;11.33;;;;;;;6.23;52.80;100216.34;5036144;28;20029;-91
2020/12/01 11:34:00;;;;;;;15.27;10.90;;;;;;;5.87;51.62;100116.28;5036244;28;20034;-79
2020/12/01 11:36:26;;;;;;;16.57;10.80;;;;;;;6.47;52.85;100210.72;5042137;28;20435;-83
2020/12/01 11:38:51;;;;;;;18.77;12.30;;;;;;;6.29;52.57;100208.75;5038462;28;20112;-86
2020/12/01 11:41:17;;;;;;;17.67;11.43;;;;;;;6.08;53.14;100154.75;5054473;28;20040;-84
2020/12/01 11:43:42;;;;;;;14.93;9.80;;;;;;;5.55;52.61;100044.91;5032687;28;20040;-87
2020/12/01 11:46:09;;;;;;;13.30;9.20;;;;;;;5.09;52.94;99965.94;5053346;28;20082;-90
2020/12/01 11:48:34;;;;;;;14.77;9.83;;;;;;;5.82;52.93;100099.31;5031456;28;20104;-81
2020/12/01 11:51:00;;;;;;;16.33;10.90;;;;;;;6.57;52.95;100211.56;5049117;28;20041;-93
2020/12/01 11:53:25;;;;;;;15.77;11.00;;;;;;;6.14;52.53;100130.63;5024293;28;20056;-81
2020/12/01 11:55:50;;;;;;;17.97;9.50;;;;;;;5.82;52.41;100078.34;5016282;28;20033;-87
2020/12/01 11:58:16;;;;;;;16.70;9.83;;;;;;;5.89;52.46;100090.81;5049754;28;20107;-78
2020/12/01 12:00:41;;;;;;;15.03;9.97;;;;;;;6.62;52.66;100199.72;5049991;28;20025;-92
2020/12/01 12:03:06;;;;;;;18.77;11.03;;;;;;;6.43;52.69;100151.63;5031579;28;20033;-78
2020/12/01 12:05:32;;;;;;;13.10;9.23;;;;;;;6.62;52.31;100172.63;5031627;28;20053;-87
2020/12/01 12:07:57;;;;;;;10.17;8.03;;;;;;;4.47;52.00;99824.88;5027846;28;20060;-85
2020/12/01 12:10:22;;;;;;;12.27;8.93;;;;;;;6.75;51.59;100182.91;5031331;28;20105;-82
2020/12/01 12:12:49;;;;;;;14.10;8.53;;;;;;;6.62;51.18;100157.72;5031139;28;20106;-77
2020/12/01 12:15:15;;;;;;;12.30;8.50;;;;;;;6.01;51.75;100054.84;5016097;28;20033;-88
2020/12/01 12:17:40;;;;;;;13.30;8.67;;;;;;;6.11;51.63;100074.03;5030664;28;20033;-81
2020/12/01 12:20:05;;;;;;;13.50;8.10;;;;;;;6.70;51.68;100157.06;5037777;28;20060;-82
2020/12/01 12:22:31;;;;;;;20.90;11.33;;;;;;;6.13;51.45;100072.13;5046008;28;20363;-79
2020/12/01 12:24:56;;;;;;;14.63;10.23;;;;;;;6.70;51.85;100180.69;5054022;28;20041;-77
2020/12/01 12:27:22;;;;;;;16.33;9.83;;;;;;;6.48;50.93;100162.56;5019705;28;20040;-86
2020/12/01 12:29:47;;;;;;;12.33;9.67;;;;;;;6.62;51.34;100178.72;5032187;28;20424;-83
2020/12/01 12:32:13;;;;;;;15.03;10.40;;;;;;;6.59;51.53;100180.78;5021068;28;20037;-78
2020/12/01 12:34:38;;;;;;;16.40;11.07;;;;;;;6.35;51.61;100150.53;5035194;28;20033;-80
2020/12/01 12:37:04;;;;;;;16.33;10.50;;;;;;;6.29;51.63;100158.09;5034889;28;20045;-80
2020/12/01 12:39:29;;;;;;;18.57;11.60;;;;;;;5.86;51.55;100087.59;5034845;28;20026;-79
2020/12/01 12:41:54;;;;;;;15.10;10.47;;;;;;;5.74;51.89;100092.94;5017325;28;20052;-77
2020/12/01 12:44:20;;;;;;;17.33;11.20;;;;;;;6.40;52.56;100181.59;5034704;28;20025;-81
2020/12/01 12:46:45;;;;;;;15.20;10.30;;;;;;;6.42;52.31;100178.84;5017360;28;20061;-78
2020/12/01 12:49:11;;;;;;;20.13;12.80;;;;;;;6.33;51.94;100170.81;5017228;28;20040;-78
2020/12/01 12:51:36;;;;;;;14.23;10.43;;;;;;;6.36;51.72;100183.66;5034922;28;20025;-81
2020/12/01 12:54:02;;;;;;;12.80;9.43;;;;;;;5.63;51.48;100052.94;5034632;28;20060;-78
2020/12/01 12:56:28;;;;;;;17.10;10.60;;;;;;;5.99;51.46;100128.38;5017323;28;20117;-79
2020/12/01 12:58:53;;;;;;;18.33;11.13;;;;;;;6.23;51.49;100156.84;5017245;28;20056;-79
2020/12/01 13:01:20;;;;;;;20.63;12.83;;;;;;;6.31;51.21;100169.28;5034568;28;20033;-83
2020/12/01 13:03:46;;;;;;;21.37;13.63;;;;;;;6.15;51.97;100143.59;5016939;28;20065;-80
2020/12/01 13:06:11;;;;;;;20.50;14.23;;;;;;;6.01;51.87;100113.34;5034390;28;20036;-80
2020/12/01 13:08:37;;;;;;;22.13;14.87;;;;;;;5.77;51.61;100085.78;5034641;28;20104;-89
2020/12/01 13:11:02;;;;;;;22.00;15.90;;;;;;;6.24;51.77;100179.50;5016982;28;20069;-83
2020/12/01 13:13:27;;;;;;;29.83;17.00;;;;;;;5.56;51.86;100050.03;5016933;28;20074;-78
2020/12/01 13:15:55;;;;;;;26.67;14.90;;;;;;;5.80;51.82;100112.53;5034405;28;20030;-82
2020/12/01 13:18:21;;;;;;;27.43;15.27;;;;;;;5.56;52.07;100063.13;5034357;28;20033;-78
2020/12/01 13:20:46;;;;;;;30.63;17.20;;;;;;;5.55;52.33;100068.50;5034593;28;20040;-79
2020/12/01 13:23:11;;;;;;;26.93;16.23;;;;;;;5.97;52.08;100129.47;5034492;28;20451;-78
2020/12/01 13:25:38;;;;;;;25.30;15.27;;;;;;;5.98;52.21;100131.13;5034556;28;20021;-80
2020/12/01 13:28:03;;;;;;;27.63;15.33;;;;;;;6.25;52.35;100154.94;5016803;28;20022;-76
2020/12/01 13:30:28;;;;;;;24.17;15.40;;;;;;;6.07;52.48;100137.38;5034484;28;20033;-78
2020/12/01 13:32:54;;;;;;;20.87;13.80;;;;;;;6.28;52.79;100157.28;5016775;28;20033;-78
2020/12/01 13:35:21;;;;;;;21.93;14.50;;;;;;;6.12;52.64;100133.38;5034098;28;20031;-77
2020/12/01 13:37:46;;;;;;;17.53;11.90;;;;;;;6.12;52.82;100129.94;5034198;28;20064;-78
2020/12/01 13:40:15;;;;;;;17.87;11.30;;;;;;;6.01;52.42;100112.53;5016387;28;20112;-78
2020/12/01 13:42:40;;;;;;;17.40;12.07;;;;;;;6.29;52.59;100160.72;5034341;28;20032;-78
2020/12/01 13:45:08;;;;;;;20.93;12.63;;;;;;;6.29;53.12;100155.50;5033953;28;20371;-77
2020/12/01 13:47:33;;;;;;;21.43;13.43;;;;;;;6.28;52.74;100169.56;5034121;28;20116;-78
2020/12/01 13:49:59;;;;;;;26.47;16.63;;;;;;;6.19;53.01;100152.03;5016496;28;20120;-77
2020/12/01 13:52:26;;;;;;;19.43;13.20;;;;;;;6.26;53.03;100161.00;5034098;28;20028;-77
2020/12/01 13:54:52;;;;;;;20.33;14.13;;;;;;;5.49;52.83;100048.91;5034264;28;20076;-77